sensor_id;sensor_type;location;lat;lon;timestamp;P1;durP1;ratioP1;P2;durP2;ratioP2
24585;SDS011;12743;52.262;6.172;2023-01-24T00:01:11;17.85;;;8.70;;
24585;SDS011;12743;52.262;6.172;2023-01-24T00:03:40;20.63;;;9.45;;
24585;SDS011;12743;52.262;6.172;2023-01-24T00:06:07;19.00;;;9.38;;
24585;SDS011;12743;52.262;6.172;2023-01-24T00:08:34;20.45;;;8.80;;
24585;SDS011;12743;52.262;6.172;2023-01-24T00:11:05;18.10;;;8.27;;
24585;SDS011;12743;52.262;6.172;2023-01-24T00:13:37;18.80;;;8.93;;
24585;SDS011;12743;52.262;6.172;2023-01-24T00:16:05;19.85;;;8.63;;
24585;SDS011;12743;52.262;6.172;2023-01-24T00:18:41;19.70;;;9.37;;
24585;SDS011;12743;52.262;6.172;2023-01-24T00:21:12;17.95;;;8.85;;
24585;SDS011;12743;52.262;6.172;2023-01-24T00:23:58;21.83;;;9.32;;
24585;SDS011;12743;52.262;6.172;2023-01-24T00:26:26;20.83;;;10.05;;
24585;SDS011;12743;52.262;6.172;2023-01-24T00:28:54;21.73;;;10.05;;
24585;SDS011;12743;52.262;6.172;2023-01-24T00:31:23;21.03;;;9.67;;
24585;SDS011;12743;52.262;6.172;2023-01-24T00:33:50;22.98;;;9.52;;
24585;SDS011;12743;52.262;6.172;2023-01-24T00:36:16;21.20;;;9.75;;
24585;SDS011;12743;52.262;6.172;2023-01-24T00:38:44;22.25;;;9.18;;
24585;SDS011;12743;52.262;6.172;2023-01-24T00:41:12;20.83;;;9.27;;
24585;SDS011;12743;52.262;6.172;2023-01-24T00:43:40;21.08;;;9.57;;
24585;SDS011;12743;52.262;6.172;2023-01-24T00:46:07;20.63;;;9.27;;
24585;SDS011;12743;52.262;6.172;2023-01-24T00:48:37;21.50;;;10.10;;
24585;SDS011;12743;52.262;6.172;2023-01-24T00:51:04;21.83;;;9.38;;
24585;SDS011;12743;52.262;6.172;2023-01-24T00:53:31;22.73;;;10.20;;
24585;SDS011;12743;52.262;6.172;2023-01-24T00:56:01;23.80;;;10.27;;
24585;SDS011;12743;52.262;6.172;2023-01-24T00:58:28;21.67;;;10.73;;
24585;SDS011;12743;52.262;6.172;2023-01-24T01:00:58;21.55;;;9.55;;
24585;SDS011;12743;52.262;6.172;2023-01-24T01:03:27;24.35;;;10.23;;
24585;SDS011;12743;52.262;6.172;2023-01-24T01:06:07;22.75;;;9.15;;
24585;SDS011;12743;52.262;6.172;2023-01-24T01:08:41;20.60;;;9.73;;
24585;SDS011;12743;52.262;6.172;2023-01-24T01:11:11;20.95;;;8.88;;
24585;SDS011;12743;52.262;6.172;2023-01-24T01:13:39;20.75;;;8.63;;
24585;SDS011;12743;52.262;6.172;2023-01-24T01:16:07;19.27;;;7.50;;
24585;SDS011;12743;52.262;6.172;2023-01-24T01:18:37;19.02;;;9.23;;
24585;SDS011;12743;52.262;6.172;2023-01-24T01:21:05;21.90;;;9.00;;
24585;SDS011;12743;52.262;6.172;2023-01-24T01:23:32;23.33;;;10.70;;
24585;SDS011;12743;52.262;6.172;2023-01-24T01:26:02;21.35;;;8.10;;
24585;SDS011;12743;52.262;6.172;2023-01-24T01:28:33;17.67;;;8.68;;
24585;SDS011;12743;52.262;6.172;2023-01-24T01:31:01;18.02;;;7.43;;
24585;SDS011;12743;52.262;6.172;2023-01-24T01:33:29;19.33;;;7.97;;
24585;SDS011;12743;52.262;6.172;2023-01-24T01:35:57;15.93;;;7.55;;
24585;SDS011;12743;52.262;6.172;2023-01-24T01:38:26;16.33;;;7.47;;
24585;SDS011;12743;52.262;6.172;2023-01-24T01:40:54;17.42;;;7.30;;
24585;SDS011;12743;52.262;6.172;2023-01-24T01:43:24;15.75;;;7.22;;
24585;SDS011;12743;52.262;6.172;2023-01-24T01:45:54;18.70;;;7.17;;
24585;SDS011;12743;52.262;6.172;2023-01-24T01:48:36;17.60;;;7.82;;
24585;SDS011;12743;52.262;6.172;2023-01-24T01:51:17;16.63;;;7.78;;
24585;SDS011;12743;52.262;6.172;2023-01-24T01:53:48;17.52;;;7.75;;
24585;SDS011;12743;52.262;6.172;2023-01-24T01:56:26;17.45;;;8.02;;
24585;SDS011;12743;52.262;6.172;2023-01-24T01:59:07;16.73;;;8.05;;
24585;SDS011;12743;52.262;6.172;2023-01-24T02:01:41;17.45;;;7.75;;
24585;SDS011;12743;52.262;6.172;2023-01-24T02:04:22;18.45;;;8.90;;
24585;SDS011;12743;52.262;6.172;2023-01-24T02:06:59;16.75;;;7.90;;
24585;SDS011;12743;52.262;6.172;2023-01-24T02:09:35;19.02;;;8.27;;
24585;SDS011;12743;52.262;6.172;2023-01-24T02:12:07;15.43;;;7.40;;
24585;SDS011;12743;52.262;6.172;2023-01-24T02:14:39;17.30;;;7.55;;
24585;SDS011;12743;52.262;6.172;2023-01-24T02:17:26;18.17;;;7.68;;
24585;SDS011;12743;52.262;6.172;2023-01-24T02:25:36;18.07;;;8.17;;
24585;SDS011;12743;52.262;6.172;2023-01-24T02:28:06;19.10;;;8.50;;
24585;SDS011;12743;52.262;6.172;2023-01-24T02:30:37;19.10;;;8.80;;
24585;SDS011;12743;52.262;6.172;2023-01-24T02:33:23;19.85;;;9.02;;
24585;SDS011;12743;52.262;6.172;2023-01-24T02:35:51;18.45;;;8.93;;
24585;SDS011;12743;52.262;6.172;2023-01-24T02:38:52;18.80;;;8.83;;
24585;SDS011;12743;52.262;6.172;2023-01-24T02:41:26;20.35;;;8.70;;
24585;SDS011;12743;52.262;6.172;2023-01-24T02:43:59;19.80;;;9.23;;
24585;SDS011;12743;52.262;6.172;2023-01-24T02:46:35;19.35;;;9.13;;
24585;SDS011;12743;52.262;6.172;2023-01-24T02:49:07;18.85;;;8.93;;
24585;SDS011;12743;52.262;6.172;2023-01-24T02:51:35;21.10;;;9.40;;
24585;SDS011;12743;52.262;6.172;2023-01-24T02:54:23;20.25;;;8.43;;
24585;SDS011;12743;52.262;6.172;2023-01-24T02:56:51;22.48;;;10.07;;
24585;SDS011;12743;52.262;6.172;2023-01-24T02:59:39;20.55;;;9.63;;
24585;SDS011;12743;52.262;6.172;2023-01-24T03:02:08;21.05;;;9.25;;
24585;SDS011;12743;52.262;6.172;2023-01-24T03:04:37;21.10;;;9.53;;
24585;SDS011;12743;52.262;6.172;2023-01-24T03:07:06;21.75;;;9.52;;
24585;SDS011;12743;52.262;6.172;2023-01-24T03:09:37;20.58;;;9.52;;
24585;SDS011;12743;52.262;6.172;2023-01-24T03:12:17;19.15;;;9.07;;
24585;SDS011;12743;52.262;6.172;2023-01-24T03:15:03;21.33;;;9.63;;
24585;SDS011;12743;52.262;6.172;2023-01-24T03:17:49;19.30;;;9.27;;
24585;SDS011;12743;52.262;6.172;2023-01-24T03:20:36;19.77;;;9.20;;
24585;SDS011;12743;52.262;6.172;2023-01-24T03:23:23;19.90;;;9.27;;
24585;SDS011;12743;52.262;6.172;2023-01-24T03:26:09;21.13;;;9.57;;
24585;SDS011;12743;52.262;6.172;2023-01-24T03:28:56;23.45;;;10.18;;
24585;SDS011;12743;52.262;6.172;2023-01-24T03:31:42;21.20;;;9.43;;
24585;SDS011;12743;52.262;6.172;2023-01-24T03:34:29;23.55;;;10.55;;
24585;SDS011;12743;52.262;6.172;2023-01-24T03:37:00;24.10;;;10.50;;
24585;SDS011;12743;52.262;6.172;2023-01-24T03:39:29;19.27;;;9.38;;
24585;SDS011;12743;52.262;6.172;2023-01-24T03:42:15;23.55;;;11.13;;
24585;SDS011;12743;52.262;6.172;2023-01-24T03:44:45;20.77;;;9.93;;
24585;SDS011;12743;52.262;6.172;2023-01-24T03:47:12;22.80;;;9.95;;
24585;SDS011;12743;52.262;6.172;2023-01-24T03:49:41;23.00;;;10.73;;
24585;SDS011;12743;52.262;6.172;2023-01-24T03:52:28;23.85;;;10.80;;
24585;SDS011;12743;52.262;6.172;2023-01-24T03:55:02;24.50;;;10.57;;
24585;SDS011;12743;52.262;6.172;2023-01-24T03:57:30;22.20;;;9.83;;
24585;SDS011;12743;52.262;6.172;2023-01-24T04:00:05;23.67;;;10.45;;
24585;SDS011;12743;52.262;6.172;2023-01-24T04:02:42;26.27;;;11.63;;
24585;SDS011;12743;52.262;6.172;2023-01-24T04:05:14;22.83;;;10.85;;
24585;SDS011;12743;52.262;6.172;2023-01-24T04:07:45;24.75;;;11.23;;
24585;SDS011;12743;52.262;6.172;2023-01-24T04:10:12;23.20;;;10.43;;
24585;SDS011;12743;52.262;6.172;2023-01-24T04:12:47;24.92;;;10.82;;
24585;SDS011;12743;52.262;6.172;2023-01-24T04:15:16;22.65;;;10.55;;
24585;SDS011;12743;52.262;6.172;2023-01-24T04:17:56;22.90;;;10.15;;
24585;SDS011;12743;52.262;6.172;2023-01-24T04:20:26;22.75;;;10.93;;
24585;SDS011;12743;52.262;6.172;2023-01-24T04:23:00;25.20;;;11.93;;
24585;SDS011;12743;52.262;6.172;2023-01-24T04:25:29;22.30;;;10.85;;
24585;SDS011;12743;52.262;6.172;2023-01-24T04:27:59;26.70;;;10.80;;
24585;SDS011;12743;52.262;6.172;2023-01-24T04:30:29;24.42;;;10.82;;
24585;SDS011;12743;52.262;6.172;2023-01-24T04:32:57;21.77;;;9.82;;
24585;SDS011;12743;52.262;6.172;2023-01-24T04:35:27;22.63;;;10.37;;
24585;SDS011;12743;52.262;6.172;2023-01-24T04:37:57;25.20;;;11.43;;
24585;SDS011;12743;52.262;6.172;2023-01-24T04:41:00;22.27;;;9.57;;
24585;SDS011;12743;52.262;6.172;2023-01-24T04:43:37;22.15;;;11.38;;
24585;SDS011;12743;52.262;6.172;2023-01-24T04:46:04;22.02;;;10.65;;
24585;SDS011;12743;52.262;6.172;2023-01-24T04:48:47;20.93;;;9.47;;
24585;SDS011;12743;52.262;6.172;2023-01-24T04:51:18;22.13;;;10.32;;
24585;SDS011;12743;52.262;6.172;2023-01-24T04:53:47;25.20;;;11.02;;
24585;SDS011;12743;52.262;6.172;2023-01-24T04:56:19;22.33;;;10.55;;
24585;SDS011;12743;52.262;6.172;2023-01-24T04:58:48;24.92;;;10.35;;
24585;SDS011;12743;52.262;6.172;2023-01-24T05:01:16;24.48;;;11.40;;
24585;SDS011;12743;52.262;6.172;2023-01-24T05:03:56;21.00;;;10.13;;
24585;SDS011;12743;52.262;6.172;2023-01-24T05:06:29;22.48;;;10.93;;
24585;SDS011;12743;52.262;6.172;2023-01-24T05:09:00;24.45;;;10.82;;
24585;SDS011;12743;52.262;6.172;2023-01-24T05:11:45;22.63;;;10.65;;
24585;SDS011;12743;52.262;6.172;2023-01-24T05:14:11;23.70;;;11.18;;
24585;SDS011;12743;52.262;6.172;2023-01-24T05:16:39;23.67;;;11.13;;
24585;SDS011;12743;52.262;6.172;2023-01-24T05:19:08;21.33;;;10.00;;
24585;SDS011;12743;52.262;6.172;2023-01-24T05:21:38;25.65;;;12.10;;
24585;SDS011;12743;52.262;6.172;2023-01-24T05:24:05;22.48;;;11.02;;
24585;SDS011;12743;52.262;6.172;2023-01-24T05:26:34;24.05;;;10.60;;
24585;SDS011;12743;52.262;6.172;2023-01-24T05:29:03;24.02;;;10.55;;
24585;SDS011;12743;52.262;6.172;2023-01-24T05:31:30;21.52;;;10.75;;
24585;SDS011;12743;52.262;6.172;2023-01-24T05:33:59;20.33;;;9.73;;
24585;SDS011;12743;52.262;6.172;2023-01-24T05:36:27;25.27;;;10.32;;
24585;SDS011;12743;52.262;6.172;2023-01-24T05:38:55;23.83;;;10.73;;
24585;SDS011;12743;52.262;6.172;2023-01-24T05:41:22;22.27;;;10.43;;
24585;SDS011;12743;52.262;6.172;2023-01-24T05:43:52;21.15;;;10.27;;
24585;SDS011;12743;52.262;6.172;2023-01-24T05:46:25;21.95;;;9.70;;
24585;SDS011;12743;52.262;6.172;2023-01-24T05:48:59;25.05;;;11.05;;
24585;SDS011;12743;52.262;6.172;2023-01-24T05:51:27;22.53;;;10.33;;
24585;SDS011;12743;52.262;6.172;2023-01-24T05:53:54;23.70;;;11.05;;
24585;SDS011;12743;52.262;6.172;2023-01-24T05:56:41;24.75;;;10.48;;
24585;SDS011;12743;52.262;6.172;2023-01-24T05:59:11;21.65;;;10.00;;
24585;SDS011;12743;52.262;6.172;2023-01-24T06:01:40;19.80;;;9.35;;
24585;SDS011;12743;52.262;6.172;2023-01-24T06:04:08;19.98;;;9.73;;
24585;SDS011;12743;52.262;6.172;2023-01-24T06:06:34;21.70;;;10.73;;
24585;SDS011;12743;52.262;6.172;2023-01-24T06:09:02;21.27;;;10.05;;
24585;SDS011;12743;52.262;6.172;2023-01-24T06:11:32;20.52;;;9.60;;
24585;SDS011;12743;52.262;6.172;2023-01-24T06:14:08;23.55;;;10.35;;
24585;SDS011;12743;52.262;6.172;2023-01-24T06:16:37;20.60;;;9.88;;
24585;SDS011;12743;52.262;6.172;2023-01-24T06:19:07;21.08;;;9.27;;
24585;SDS011;12743;52.262;6.172;2023-01-24T06:21:44;20.33;;;9.32;;
24585;SDS011;12743;52.262;6.172;2023-01-24T06:24:22;19.45;;;9.32;;
24585;SDS011;12743;52.262;6.172;2023-01-24T06:27:02;20.90;;;9.98;;
24585;SDS011;12743;52.262;6.172;2023-01-24T06:29:30;23.42;;;9.63;;
24585;SDS011;12743;52.262;6.172;2023-01-24T06:34:59;21.42;;;10.02;;
24585;SDS011;12743;52.262;6.172;2023-01-24T06:37:47;20.90;;;9.07;;
24585;SDS011;12743;52.262;6.172;2023-01-24T06:40:21;24.95;;;10.25;;
24585;SDS011;12743;52.262;6.172;2023-01-24T06:42:50;20.50;;;9.63;;
24585;SDS011;12743;52.262;6.172;2023-01-24T06:45:20;22.88;;;10.05;;
24585;SDS011;12743;52.262;6.172;2023-01-24T06:47:48;21.75;;;9.52;;
24585;SDS011;12743;52.262;6.172;2023-01-24T06:50:17;19.90;;;9.35;;
24585;SDS011;12743;52.262;6.172;2023-01-24T06:52:48;21.58;;;9.27;;
24585;SDS011;12743;52.262;6.172;2023-01-24T06:55:16;21.92;;;9.68;;
24585;SDS011;12743;52.262;6.172;2023-01-24T06:57:43;20.15;;;8.57;;
24585;SDS011;12743;52.262;6.172;2023-01-24T07:00:16;20.63;;;9.40;;
24585;SDS011;12743;52.262;6.172;2023-01-24T07:02:45;20.55;;;8.23;;
24585;SDS011;12743;52.262;6.172;2023-01-24T07:05:12;19.52;;;8.07;;
24585;SDS011;12743;52.262;6.172;2023-01-24T07:07:39;20.57;;;9.27;;
24585;SDS011;12743;52.262;6.172;2023-01-24T07:10:07;22.30;;;9.52;;
24585;SDS011;12743;52.262;6.172;2023-01-24T07:12:36;21.83;;;9.15;;
24585;SDS011;12743;52.262;6.172;2023-01-24T07:15:05;22.80;;;10.10;;
24585;SDS011;12743;52.262;6.172;2023-01-24T07:17:33;18.20;;;8.43;;
24585;SDS011;12743;52.262;6.172;2023-01-24T07:20:02;19.83;;;8.60;;
24585;SDS011;12743;52.262;6.172;2023-01-24T07:22:32;21.17;;;8.50;;
24585;SDS011;12743;52.262;6.172;2023-01-24T07:25:00;23.15;;;9.80;;
24585;SDS011;12743;52.262;6.172;2023-01-24T07:27:29;19.17;;;7.60;;
24585;SDS011;12743;52.262;6.172;2023-01-24T07:29:56;20.90;;;9.25;;
24585;SDS011;12743;52.262;6.172;2023-01-24T07:32:24;20.48;;;8.25;;
24585;SDS011;12743;52.262;6.172;2023-01-24T07:34:52;18.83;;;8.05;;
24585;SDS011;12743;52.262;6.172;2023-01-24T07:37:19;19.98;;;8.90;;
24585;SDS011;12743;52.262;6.172;2023-01-24T07:39:47;19.55;;;7.88;;
24585;SDS011;12743;52.262;6.172;2023-01-24T07:42:15;17.90;;;7.95;;
24585;SDS011;12743;52.262;6.172;2023-01-24T07:44:43;22.85;;;9.25;;
24585;SDS011;12743;52.262;6.172;2023-01-24T07:47:11;19.17;;;8.52;;
24585;SDS011;12743;52.262;6.172;2023-01-24T07:49:38;17.63;;;8.50;;
24585;SDS011;12743;52.262;6.172;2023-01-24T07:52:08;18.73;;;8.18;;
24585;SDS011;12743;52.262;6.172;2023-01-24T07:54:38;21.52;;;9.07;;
24585;SDS011;12743;52.262;6.172;2023-01-24T07:57:07;18.77;;;8.30;;
24585;SDS011;12743;52.262;6.172;2023-01-24T07:59:35;19.30;;;9.02;;
24585;SDS011;12743;52.262;6.172;2023-01-24T08:02:05;18.50;;;7.93;;
24585;SDS011;12743;52.262;6.172;2023-01-24T08:04:32;17.33;;;8.18;;
24585;SDS011;12743;52.262;6.172;2023-01-24T08:07:01;18.83;;;8.95;;
24585;SDS011;12743;52.262;6.172;2023-01-24T08:09:44;19.67;;;9.50;;
24585;SDS011;12743;52.262;6.172;2023-01-24T08:12:13;18.75;;;8.18;;
24585;SDS011;12743;52.262;6.172;2023-01-24T08:14:42;19.63;;;9.07;;
24585;SDS011;12743;52.262;6.172;2023-01-24T08:17:10;19.75;;;9.27;;
24585;SDS011;12743;52.262;6.172;2023-01-24T08:19:40;20.90;;;8.63;;
24585;SDS011;12743;52.262;6.172;2023-01-24T08:22:24;19.05;;;9.07;;
24585;SDS011;12743;52.262;6.172;2023-01-24T08:24:52;20.15;;;9.30;;
24585;SDS011;12743;52.262;6.172;2023-01-24T08:27:18;19.90;;;8.85;;
24585;SDS011;12743;52.262;6.172;2023-01-24T08:29:46;19.95;;;8.45;;
24585;SDS011;12743;52.262;6.172;2023-01-24T08:32:13;15.65;;;6.63;;
24585;SDS011;12743;52.262;6.172;2023-01-24T08:34:39;16.75;;;7.80;;
24585;SDS011;12743;52.262;6.172;2023-01-24T08:37:09;19.98;;;8.50;;
24585;SDS011;12743;52.262;6.172;2023-01-24T08:39:35;19.13;;;8.82;;
24585;SDS011;12743;52.262;6.172;2023-01-24T08:42:03;18.63;;;8.60;;
24585;SDS011;12743;52.262;6.172;2023-01-24T08:44:31;16.23;;;6.63;;
24585;SDS011;12743;52.262;6.172;2023-01-24T08:46:59;19.27;;;8.35;;
24585;SDS011;12743;52.262;6.172;2023-01-24T08:49:28;18.83;;;8.63;;
24585;SDS011;12743;52.262;6.172;2023-01-24T08:51:55;16.38;;;7.32;;
24585;SDS011;12743;52.262;6.172;2023-01-24T08:54:26;16.75;;;7.50;;
24585;SDS011;12743;52.262;6.172;2023-01-24T08:56:58;18.48;;;7.88;;
24585;SDS011;12743;52.262;6.172;2023-01-24T08:59:28;18.57;;;8.40;;
24585;SDS011;12743;52.262;6.172;2023-01-24T09:01:54;19.10;;;7.95;;
24585;SDS011;12743;52.262;6.172;2023-01-24T09:04:23;14.43;;;6.53;;
24585;SDS011;12743;52.262;6.172;2023-01-24T09:06:52;17.95;;;7.93;;
24585;SDS011;12743;52.262;6.172;2023-01-24T09:09:19;16.27;;;7.05;;
24585;SDS011;12743;52.262;6.172;2023-01-24T09:11:47;17.98;;;7.97;;
24585;SDS011;12743;52.262;6.172;2023-01-24T09:14:15;20.13;;;8.65;;
24585;SDS011;12743;52.262;6.172;2023-01-24T09:16:41;19.48;;;8.38;;
24585;SDS011;12743;52.262;6.172;2023-01-24T09:19:11;14.93;;;7.22;;
24585;SDS011;12743;52.262;6.172;2023-01-24T09:21:40;19.70;;;8.60;;
24585;SDS011;12743;52.262;6.172;2023-01-24T09:24:06;15.82;;;7.45;;
24585;SDS011;12743;52.262;6.172;2023-01-24T09:26:36;18.38;;;7.90;;
24585;SDS011;12743;52.262;6.172;2023-01-24T09:29:05;14.80;;;6.97;;
24585;SDS011;12743;52.262;6.172;2023-01-24T09:31:32;16.60;;;7.82;;
24585;SDS011;12743;52.262;6.172;2023-01-24T09:34:00;18.02;;;8.40;;
24585;SDS011;12743;52.262;6.172;2023-01-24T09:36:27;20.80;;;8.60;;
24585;SDS011;12743;52.262;6.172;2023-01-24T09:38:54;18.38;;;7.93;;
24585;SDS011;12743;52.262;6.172;2023-01-24T09:44:47;15.40;;;7.63;;
24585;SDS011;12743;52.262;6.172;2023-01-24T09:47:26;17.77;;;8.65;;
24585;SDS011;12743;52.262;6.172;2023-01-24T09:49:58;14.35;;;6.57;;
24585;SDS011;12743;52.262;6.172;2023-01-24T09:52:31;19.42;;;8.50;;
24585;SDS011;12743;52.262;6.172;2023-01-24T09:57:56;15.90;;;8.00;;
24585;SDS011;12743;52.262;6.172;2023-01-24T10:00:31;16.70;;;7.95;;
24585;SDS011;12743;52.262;6.172;2023-01-24T10:03:02;18.23;;;8.18;;
24585;SDS011;12743;52.262;6.172;2023-01-24T10:05:37;16.90;;;7.95;;
24585;SDS011;12743;52.262;6.172;2023-01-24T10:08:11;18.05;;;8.35;;
24585;SDS011;12743;52.262;6.172;2023-01-24T10:13:25;17.60;;;6.68;;
24585;SDS011;12743;52.262;6.172;2023-01-24T10:16:18;21.17;;;8.33;;
24585;SDS011;12743;52.262;6.172;2023-01-24T10:22:18;16.73;;;7.82;;
24585;SDS011;12743;52.262;6.172;2023-01-24T10:24:52;18.30;;;7.85;;
24585;SDS011;12743;52.262;6.172;2023-01-24T10:27:31;16.10;;;6.72;;
24585;SDS011;12743;52.262;6.172;2023-01-24T10:30:12;16.73;;;8.07;;
24585;SDS011;12743;52.262;6.172;2023-01-24T10:32:44;17.10;;;8.15;;
24585;SDS011;12743;52.262;6.172;2023-01-24T10:35:17;16.20;;;7.78;;
24585;SDS011;12743;52.262;6.172;2023-01-24T10:37:52;18.83;;;8.40;;
24585;SDS011;12743;52.262;6.172;2023-01-24T10:40:24;18.33;;;7.68;;
24585;SDS011;12743;52.262;6.172;2023-01-24T10:42:51;19.65;;;8.93;;
24585;SDS011;12743;52.262;6.172;2023-01-24T10:48:35;14.57;;;5.30;;
24585;SDS011;12743;52.262;6.172;2023-01-24T10:51:12;16.08;;;7.95;;
24585;SDS011;12743;52.262;6.172;2023-01-24T10:53:50;19.25;;;7.72;;
24585;SDS011;12743;52.262;6.172;2023-01-24T10:56:18;17.42;;;9.07;;
24585;SDS011;12743;52.262;6.172;2023-01-24T10:58:54;19.60;;;8.82;;
24585;SDS011;12743;52.262;6.172;2023-01-24T11:01:31;17.92;;;9.05;;
24585;SDS011;12743;52.262;6.172;2023-01-24T11:04:25;15.23;;;7.28;;
24585;SDS011;12743;52.262;6.172;2023-01-24T11:06:53;19.45;;;8.40;;
24585;SDS011;12743;52.262;6.172;2023-01-24T11:09:21;16.67;;;7.70;;
24585;SDS011;12743;52.262;6.172;2023-01-24T11:11:55;15.88;;;7.25;;
24585;SDS011;12743;52.262;6.172;2023-01-24T11:14:26;17.75;;;7.55;;
24585;SDS011;12743;52.262;6.172;2023-01-24T11:16:59;14.55;;;7.32;;
24585;SDS011;12743;52.262;6.172;2023-01-24T11:19:30;16.20;;;7.43;;
24585;SDS011;12743;52.262;6.172;2023-01-24T11:24:50;17.52;;;7.82;;
24585;SDS011;12743;52.262;6.172;2023-01-24T11:27:26;16.90;;;7.93;;
24585;SDS011;12743;52.262;6.172;2023-01-24T11:35:50;21.38;;;8.63;;
24585;SDS011;12743;52.262;6.172;2023-01-24T11:38:22;18.58;;;7.95;;
24585;SDS011;12743;52.262;6.172;2023-01-24T11:51:41;16.85;;;8.52;;
24585;SDS011;12743;52.262;6.172;2023-01-24T11:57:33;19.83;;;8.85;;
24585;SDS011;12743;52.262;6.172;2023-01-24T12:00:21;16.75;;;8.93;;
24585;SDS011;12743;52.262;6.172;2023-01-24T12:03:02;16.48;;;8.40;;
24585;SDS011;12743;52.262;6.172;2023-01-24T12:17:20;18.73;;;9.00;;
24585;SDS011;12743;52.262;6.172;2023-01-24T12:23:19;18.60;;;8.98;;
24585;SDS011;12743;52.262;6.172;2023-01-24T12:25:51;19.50;;;10.10;;
24585;SDS011;12743;52.262;6.172;2023-01-24T12:31:14;19.47;;;9.73;;
24585;SDS011;12743;52.262;6.172;2023-01-24T12:33:49;19.42;;;9.30;;
24585;SDS011;12743;52.262;6.172;2023-01-24T12:39:54;18.88;;;9.15;;
24585;SDS011;12743;52.262;6.172;2023-01-24T12:45:18;21.90;;;10.90;;
24585;SDS011;12743;52.262;6.172;2023-01-24T12:47:56;18.92;;;9.30;;
24585;SDS011;12743;52.262;6.172;2023-01-24T12:50:43;21.20;;;10.20;;
24585;SDS011;12743;52.262;6.172;2023-01-24T12:56:17;19.45;;;9.80;;
24585;SDS011;12743;52.262;6.172;2023-01-24T12:58:48;19.63;;;9.93;;
24585;SDS011;12743;52.262;6.172;2023-01-24T13:03:55;18.50;;;9.15;;
24585;SDS011;12743;52.262;6.172;2023-01-24T13:06:52;18.15;;;9.43;;
24585;SDS011;12743;52.262;6.172;2023-01-24T13:10:13;20.77;;;10.38;;
24585;SDS011;12743;52.262;6.172;2023-01-24T13:12:29;18.83;;;9.70;;
24585;SDS011;12743;52.262;6.172;2023-01-24T13:15:06;19.17;;;9.50;;
24585;SDS011;12743;52.262;6.172;2023-01-24T13:17:47;19.65;;;10.07;;
24585;SDS011;12743;52.262;6.172;2023-01-24T13:23:39;18.63;;;10.00;;
24585;SDS011;12743;52.262;6.172;2023-01-24T13:26:14;20.13;;;9.68;;
24585;SDS011;12743;52.262;6.172;2023-01-24T13:34:34;19.38;;;10.15;;
24585;SDS011;12743;52.262;6.172;2023-01-24T13:37:13;20.02;;;10.48;;
24585;SDS011;12743;52.262;6.172;2023-01-24T13:39:46;18.48;;;9.57;;
24585;SDS011;12743;52.262;6.172;2023-01-24T13:42:20;22.17;;;11.07;;
24585;SDS011;12743;52.262;6.172;2023-01-24T13:44:48;20.23;;;11.10;;
24585;SDS011;12743;52.262;6.172;2023-01-24T13:49:44;22.45;;;11.68;;
24585;SDS011;12743;52.262;6.172;2023-01-24T13:54:58;18.63;;;9.88;;
24585;SDS011;12743;52.262;6.172;2023-01-24T13:57:34;21.48;;;11.43;;
24585;SDS011;12743;52.262;6.172;2023-01-24T14:08:00;21.38;;;11.23;;
24585;SDS011;12743;52.262;6.172;2023-01-24T14:10:45;21.42;;;10.95;;
24585;SDS011;12743;52.262;6.172;2023-01-24T14:21:30;20.17;;;11.30;;
24585;SDS011;12743;52.262;6.172;2023-01-24T14:24:10;19.38;;;11.70;;
24585;SDS011;12743;52.262;6.172;2023-01-24T14:26:50;22.30;;;11.25;;
24585;SDS011;12743;52.262;6.172;2023-01-24T14:29:17;24.20;;;12.45;;
24585;SDS011;12743;52.262;6.172;2023-01-24T14:31:46;22.73;;;11.55;;
24585;SDS011;12743;52.262;6.172;2023-01-24T14:35:11;20.05;;;11.57;;
24585;SDS011;12743;52.262;6.172;2023-01-24T14:37:16;21.35;;;11.57;;
24585;SDS011;12743;52.262;6.172;2023-01-24T14:39:47;20.83;;;11.38;;
24585;SDS011;12743;52.262;6.172;2023-01-24T14:42:15;22.17;;;12.18;;
24585;SDS011;12743;52.262;6.172;2023-01-24T14:44:54;19.53;;;11.83;;
24585;SDS011;12743;52.262;6.172;2023-01-24T14:47:22;21.88;;;12.10;;
24585;SDS011;12743;52.262;6.172;2023-01-24T14:49:56;23.85;;;12.70;;
24585;SDS011;12743;52.262;6.172;2023-01-24T14:52:28;21.80;;;12.27;;
24585;SDS011;12743;52.262;6.172;2023-01-24T14:55:01;20.98;;;11.70;;
24585;SDS011;12743;52.262;6.172;2023-01-24T14:57:41;24.80;;;13.00;;
24585;SDS011;12743;52.262;6.172;2023-01-24T15:02:43;20.05;;;11.05;;
24585;SDS011;12743;52.262;6.172;2023-01-24T15:05:21;20.83;;;10.95;;
24585;SDS011;12743;52.262;6.172;2023-01-24T15:08:03;21.27;;;11.85;;
24585;SDS011;12743;52.262;6.172;2023-01-24T15:10:37;23.60;;;11.73;;
24585;SDS011;12743;52.262;6.172;2023-01-24T15:13:17;19.58;;;10.20;;
24585;SDS011;12743;52.262;6.172;2023-01-24T15:15:50;21.80;;;12.15;;
24585;SDS011;12743;52.262;6.172;2023-01-24T15:18:30;21.05;;;11.02;;
24585;SDS011;12743;52.262;6.172;2023-01-24T15:21:28;21.58;;;12.55;;
24585;SDS011;12743;52.262;6.172;2023-01-24T15:23:59;21.80;;;11.85;;
24585;SDS011;12743;52.262;6.172;2023-01-24T15:26:33;18.75;;;10.63;;
24585;SDS011;12743;52.262;6.172;2023-01-24T15:43:34;22.88;;;11.35;;
24585;SDS011;12743;52.262;6.172;2023-01-24T15:46:37;22.75;;;11.88;;
24585;SDS011;12743;52.262;6.172;2023-01-24T15:49:30;20.88;;;11.48;;
24585;SDS011;12743;52.262;6.172;2023-01-24T15:54:49;21.48;;;12.32;;
24585;SDS011;12743;52.262;6.172;2023-01-24T15:59:59;20.98;;;11.75;;
24585;SDS011;12743;52.262;6.172;2023-01-24T16:02:35;22.42;;;12.55;;
24585;SDS011;12743;52.262;6.172;2023-01-24T16:05:12;20.17;;;11.87;;
24585;SDS011;12743;52.262;6.172;2023-01-24T16:07:40;22.90;;;11.00;;
24585;SDS011;12743;52.262;6.172;2023-01-24T16:10:11;20.23;;;11.30;;
24585;SDS011;12743;52.262;6.172;2023-01-24T16:12:40;18.67;;;10.27;;
24585;SDS011;12743;52.262;6.172;2023-01-24T16:15:13;19.52;;;10.82;;
24585;SDS011;12743;52.262;6.172;2023-01-24T16:17:44;19.42;;;10.77;;
24585;SDS011;12743;52.262;6.172;2023-01-24T16:20:21;20.08;;;10.55;;
24585;SDS011;12743;52.262;6.172;2023-01-24T16:22:49;22.20;;;11.43;;
24585;SDS011;12743;52.262;6.172;2023-01-24T16:25:19;16.60;;;9.43;;
24585;SDS011;12743;52.262;6.172;2023-01-24T16:27:46;19.27;;;10.80;;
24585;SDS011;12743;52.262;6.172;2023-01-24T16:30:16;17.60;;;10.07;;
24585;SDS011;12743;52.262;6.172;2023-01-24T16:32:46;17.73;;;9.82;;
24585;SDS011;12743;52.262;6.172;2023-01-24T16:35:13;17.25;;;9.85;;
24585;SDS011;12743;52.262;6.172;2023-01-24T16:37:40;21.38;;;10.93;;
24585;SDS011;12743;52.262;6.172;2023-01-24T16:40:13;18.42;;;10.30;;
24585;SDS011;12743;52.262;6.172;2023-01-24T16:42:44;18.60;;;9.90;;
24585;SDS011;12743;52.262;6.172;2023-01-24T16:45:17;18.45;;;10.65;;
24585;SDS011;12743;52.262;6.172;2023-01-24T16:47:47;19.40;;;10.77;;
24585;SDS011;12743;52.262;6.172;2023-01-24T16:50:15;18.55;;;10.52;;
24585;SDS011;12743;52.262;6.172;2023-01-24T16:52:43;17.25;;;10.23;;
24585;SDS011;12743;52.262;6.172;2023-01-24T16:55:11;18.98;;;10.43;;
24585;SDS011;12743;52.262;6.172;2023-01-24T16:57:39;20.20;;;10.70;;
24585;SDS011;12743;52.262;6.172;2023-01-24T17:00:07;19.52;;;10.65;;
24585;SDS011;12743;52.262;6.172;2023-01-24T17:02:39;22.50;;;10.43;;
24585;SDS011;12743;52.262;6.172;2023-01-24T17:05:08;18.40;;;10.13;;
24585;SDS011;12743;52.262;6.172;2023-01-24T17:07:35;17.37;;;9.97;;
24585;SDS011;12743;52.262;6.172;2023-01-24T17:10:03;16.05;;;8.68;;